Enter the Airport ICAO Code

Search by Airport or City

Current Weather

GCLA | La Palma Airport

La Palma, Canary Islands, Spain

Last Update 8 Minutes Ago

Sky with Few Clouds

Temperature of 25 ºC

Moderate Winds from North

Temperature

25 ºC

Dew Point Temperature

18 ºC

Relative Humidity

65.31 %

Wind Direction

North (010º, Ranging from 340º to 050º)

Wind Velocity

24 km/h (13 kt)

Gusts

None

Visibility

Greater than 10 Kilometers

Sea Level Pressure

1020 hPa (Hectopascals)

Layers of Clouds

5% to 30% of Sky Covered from 610 mts (2000 ft) Above Ground Level.

METAR GCLA 131130Z 01013KT 340V050 9999 FEW020 25/18 Q1020

Weather Forecast

GCLA | La Palma Airport

La Palma, Canary Islands, Spain

Forecast valid for the next 21 Hours

From now on it is expected:

Partly Cloudy Sky

Moderate Winds from NorthEast

In 7 to 9 hours it is expected the begining of:

Light to Moderate Winds from NorthWest

Maximum Temperature

26 ºC in 1 Hour

Minimum Temperature

21 ºC in 18 Hours

TAF GCLA 130800Z 1309/1409 03011KT 9999 SCT020 TX26/1313Z TN21/1406Z BECMG 1319/1321 33008KT